createdAt,value
2022-12-11T00:00:55.459Z,24.38
2022-12-11T00:03:23.113Z,27.25
2022-12-11T00:05:50.623Z,28.25
2022-12-11T00:08:18.186Z,26.60
2022-12-11T00:10:49.663Z,27.05
2022-12-11T00:13:17.217Z,28.05
2022-12-11T00:15:44.654Z,27.85
2022-12-11T00:18:14.158Z,29.98
2022-12-11T00:20:42.016Z,30.02
2022-12-11T00:23:10.926Z,29.35
2022-12-11T00:25:45.666Z,30.02
2022-12-11T00:28:19.918Z,31.05
2022-12-11T00:30:47.977Z,28.38
2022-12-11T00:33:15.694Z,27.10
2022-12-11T00:35:46.837Z,26.05
2022-12-11T00:38:17.789Z,27.92
2022-12-11T00:40:45.731Z,27.25
2022-12-11T00:43:14.400Z,26.63
2022-12-11T00:45:44.523Z,25.30
2022-12-11T00:48:13.376Z,24.98
2022-12-11T00:50:41.417Z,23.90
2022-12-11T00:53:08.899Z,26.17
2022-12-11T00:55:38.274Z,24.25
2022-12-11T00:58:07.300Z,25.13
2022-12-11T01:00:35.615Z,24.52
2022-12-11T01:03:03.668Z,25.98
2022-12-11T01:05:31.729Z,26.17
2022-12-11T01:07:59.816Z,23.38
2022-12-11T01:10:27.454Z,24.02
2022-12-11T01:12:56.430Z,22.13
2022-12-11T01:15:29.919Z,23.35
2022-12-11T01:17:57.572Z,24.88
2022-12-11T01:20:27.360Z,21.85
2022-12-11T01:22:57.323Z,22.73
2022-12-11T01:25:25.829Z,22.67
2022-12-11T01:27:55.348Z,22.55
2022-12-11T01:30:25.081Z,24.33
2022-12-11T01:32:52.734Z,25.83
2022-12-11T01:35:20.837Z,23.77
2022-12-11T01:37:49.019Z,23.85
2022-12-11T01:40:19.406Z,24.17
2022-12-11T01:42:47.223Z,22.73
2022-12-11T01:45:33.319Z,23.38
2022-12-11T01:48:14.217Z,23.33
2022-12-11T01:50:47.010Z,25.05
2022-12-11T01:53:20.058Z,22.45
2022-12-11T01:55:49.587Z,25.10
2022-12-11T01:58:18.664Z,24.00
2022-12-11T02:00:46.623Z,23.70
2022-12-11T02:03:14.416Z,23.27
2022-12-11T02:05:43.425Z,22.02
2022-12-11T02:08:12.085Z,19.77
2022-12-11T02:10:42.230Z,19.38
2022-12-11T02:13:19.124Z,19.23
2022-12-11T02:16:18.954Z,19.55
2022-12-11T02:18:59.109Z,17.52
2022-12-11T02:21:33.642Z,19.35
2022-12-11T02:24:45.944Z,17.63
2022-12-11T02:27:29.213Z,19.00
2022-12-11T02:30:05.932Z,18.17
2022-12-11T02:32:46.063Z,18.30
2022-12-11T02:35:22.295Z,17.42
2022-12-11T02:37:55.145Z,18.42
2022-12-11T02:40:27.832Z,18.02
2022-12-11T02:42:58.182Z,19.35
2022-12-11T02:45:27.576Z,17.48
2022-12-11T02:47:58.867Z,18.55
2022-12-11T02:50:28.956Z,19.73
2022-12-11T02:52:58.645Z,18.30
2022-12-11T02:55:28.464Z,20.15
2022-12-11T02:58:04.725Z,18.50
2022-12-11T03:00:33.011Z,20.15
2022-12-11T13:14:57.292Z,20.77
2022-12-11T13:43:50.981Z,18.73
2022-12-11T13:46:29.332Z,16.58
2022-12-11T13:49:01.172Z,19.55
2022-12-11T13:51:32.018Z,17.63
2022-12-11T13:54:17.281Z,18.10
2022-12-11T13:56:57.236Z,18.23
2022-12-11T13:59:37.160Z,19.27
2022-12-11T14:02:18.366Z,19.50
2022-12-11T14:04:49.577Z,19.77
2022-12-11T14:07:25.141Z,22.73
2022-12-11T14:09:59.782Z,22.95
2022-12-11T14:12:29.509Z,23.42
2022-12-11T14:14:59.817Z,20.85
2022-12-11T14:17:30.906Z,23.25
2022-12-11T14:20:03.115Z,24.13
2022-12-11T14:22:30.853Z,24.95
2022-12-11T14:25:03.612Z,24.00
2022-12-11T14:27:31.448Z,26.33
2022-12-11T14:30:11.353Z,22.85
2022-12-11T14:32:44.797Z,25.08
2022-12-11T14:35:38.697Z,23.30
2022-12-11T14:38:15.664Z,23.40
2022-12-11T14:40:47.483Z,21.95
2022-12-11T14:43:23.473Z,25.85
2022-12-11T14:45:57.476Z,24.67
2022-12-11T14:48:42.710Z,24.17
2022-12-11T14:53:45.021Z,26.40
2022-12-11T14:56:25.747Z,25.27
2022-12-11T14:58:58.240Z,24.75
2022-12-11T15:01:29.841Z,23.52
2022-12-11T15:04:25.392Z,24.90
2022-12-11T15:06:53.159Z,24.17
2022-12-11T15:09:40.675Z,24.38
2022-12-11T15:12:13.839Z,23.55
2022-12-11T15:15:01.343Z,25.38
2022-12-11T15:17:33.035Z,25.85
2022-12-11T15:20:07.604Z,24.05
2022-12-11T15:22:36.131Z,24.17
2022-12-11T15:25:04.239Z,25.05
2022-12-11T15:27:39.738Z,25.05
2022-12-11T15:30:29.191Z,33.42
2022-12-11T15:33:05.712Z,24.38
2022-12-11T15:35:33.339Z,27.42
2022-12-11T15:38:01.076Z,25.90
2022-12-11T15:40:29.352Z,25.60
2022-12-11T15:42:57.937Z,24.17
2022-12-11T15:45:29.522Z,27.10
2022-12-11T15:48:00.178Z,22.83
2022-12-11T15:50:29.567Z,26.40
2022-12-11T15:52:57.413Z,25.45
2022-12-11T15:55:27.757Z,25.75
2022-12-11T15:57:59.499Z,23.02
2022-12-11T16:00:28.285Z,22.80
2022-12-11T16:02:57.134Z,21.98
2022-12-11T16:05:25.766Z,23.85
2022-12-11T16:07:54.701Z,22.33
2022-12-11T16:10:22.989Z,22.48
2022-12-11T16:12:51.238Z,23.10
2022-12-11T16:15:23.513Z,24.75
2022-12-11T16:18:03.354Z,25.73
2022-12-11T16:20:31.666Z,21.88
2022-12-11T16:23:00.497Z,24.00
2022-12-11T16:25:29.075Z,23.83
2022-12-11T16:27:58.202Z,22.65
2022-12-11T16:30:27.476Z,24.88
2022-12-11T16:32:55.985Z,22.63
2022-12-11T16:35:23.803Z,24.85
2022-12-11T16:37:53.339Z,25.33
2022-12-11T16:40:21.379Z,22.73
2022-12-11T16:42:52.188Z,22.38
2022-12-11T16:45:26.146Z,21.48
2022-12-11T16:47:55.133Z,21.90
2022-12-11T16:50:23.678Z,22.77
2022-12-11T16:52:51.189Z,23.42
2022-12-11T16:55:22.208Z,23.05
2022-12-11T16:57:49.753Z,22.75
2022-12-11T17:00:18.705Z,22.92
2022-12-11T17:02:46.297Z,25.58
2022-12-11T17:05:16.610Z,22.15
2022-12-11T17:07:44.529Z,20.92
2022-12-11T17:10:12.298Z,22.02
2022-12-11T17:12:40.219Z,22.92
2022-12-11T17:15:08.044Z,27.63
2022-12-11T17:17:35.600Z,39.80
2022-12-11T17:20:05.161Z,33.33
2022-12-11T17:22:33.381Z,45.33
2022-12-11T17:25:01.183Z,27.88
2022-12-11T17:27:29.895Z,33.83
2022-12-11T17:29:57.780Z,36.33
2022-12-11T17:32:25.976Z,38.50
2022-12-11T17:34:53.811Z,30.20
2022-12-11T17:37:21.689Z,27.15
2022-12-11T17:39:53.345Z,42.10
2022-12-11T17:42:21.511Z,25.95
2022-12-11T17:44:49.023Z,29.52
2022-12-11T17:47:17.018Z,26.27
2022-12-11T17:49:45.149Z,22.85
2022-12-11T17:52:12.905Z,21.25
2022-12-11T17:54:40.559Z,36.13
2022-12-11T17:57:09.823Z,27.65
2022-12-11T17:59:37.951Z,52.90
2022-12-11T18:02:05.599Z,45.92
2022-12-11T18:04:34.201Z,26.90
2022-12-11T18:07:02.193Z,37.10
2022-12-11T18:09:30.025Z,29.40
2022-12-11T18:11:57.735Z,38.30
2022-12-11T18:14:25.576Z,43.80
2022-12-11T18:16:53.332Z,31.98
2022-12-11T18:19:22.700Z,31.67
2022-12-11T18:21:50.484Z,25.50
2022-12-11T18:24:18.055Z,32.25
2022-12-11T18:26:46.964Z,28.90
2022-12-11T18:29:15.280Z,36.88
2022-12-11T18:31:43.670Z,45.40
2022-12-11T18:34:11.525Z,29.10
2022-12-11T18:36:40.839Z,34.45
2022-12-11T18:39:09.642Z,32.85
2022-12-11T18:41:37.403Z,33.83
2022-12-11T18:44:09.510Z,31.13
2022-12-11T18:46:39.605Z,56.67
2022-12-11T18:49:07.662Z,35.15
2022-12-11T18:51:35.990Z,32.00
2022-12-11T18:54:04.856Z,33.63
2022-12-11T18:56:32.650Z,41.20
2022-12-11T18:59:00.296Z,40.83
2022-12-11T19:01:29.934Z,32.63
2022-12-11T19:04:03.530Z,31.73
2022-12-11T19:06:35.468Z,40.22
2022-12-11T19:09:06.621Z,40.92
2022-12-11T19:11:35.655Z,45.50
2022-12-11T19:14:05.633Z,40.05
2022-12-11T19:16:36.621Z,39.55
2022-12-11T19:19:09.931Z,36.92
2022-12-11T19:21:38.708Z,32.90
2022-12-11T19:24:08.671Z,37.15
2022-12-11T19:26:36.663Z,33.90
2022-12-11T19:29:04.488Z,35.95
2022-12-11T19:31:33.911Z,37.65
2022-12-11T19:34:02.643Z,41.35
2022-12-11T19:36:33.599Z,36.65
2022-12-11T19:39:04.205Z,39.30
2022-12-11T19:41:33.917Z,36.50
2022-12-11T19:44:02.214Z,38.25
2022-12-11T19:46:30.071Z,35.65
2022-12-11T19:48:59.318Z,40.85
2022-12-11T19:51:38.298Z,35.75
2022-12-11T19:54:08.762Z,39.78
2022-12-11T19:56:36.406Z,41.20
2022-12-11T19:59:08.348Z,36.95
2022-12-11T20:01:37.650Z,40.65
2022-12-11T20:04:11.461Z,37.83
2022-12-11T20:06:42.906Z,41.70
2022-12-11T20:09:12.211Z,44.13
2022-12-11T20:11:43.648Z,37.35
2022-12-11T20:14:22.312Z,38.45
2022-12-11T20:17:11.061Z,36.35
2022-12-11T20:19:40.727Z,38.90
2022-12-11T20:22:09.198Z,40.85
2022-12-11T20:24:37.504Z,35.00
2022-12-11T20:27:05.185Z,38.15
2022-12-11T20:29:32.992Z,37.40
2022-12-11T20:32:00.921Z,36.38
2022-12-11T20:34:30.016Z,38.90
2022-12-11T20:36:57.870Z,38.08
2022-12-11T20:39:25.816Z,39.22
2022-12-11T20:41:53.716Z,43.30
2022-12-11T20:44:21.722Z,35.80
2022-12-11T20:46:50.731Z,39.78
2022-12-11T20:49:18.333Z,38.17
2022-12-11T20:51:46.121Z,37.95
2022-12-11T20:54:14.800Z,36.55
2022-12-11T20:56:42.648Z,37.92
2022-12-11T20:59:10.822Z,40.33
2022-12-11T21:01:40.256Z,41.58
2022-12-11T21:04:08.032Z,36.85
2022-12-11T21:06:38.709Z,41.67
2022-12-11T21:09:09.413Z,40.75
2022-12-11T21:11:37.158Z,42.75
2022-12-11T21:14:05.451Z,38.72
2022-12-11T21:16:36.612Z,42.40
2022-12-11T21:19:07.917Z,43.00
2022-12-11T21:21:39.922Z,40.25
2022-12-11T21:24:09.083Z,40.00
2022-12-11T21:26:36.531Z,46.00
2022-12-11T21:29:04.560Z,47.72
2022-12-11T21:31:32.189Z,44.85
2022-12-11T21:34:00.158Z,42.22
2022-12-11T21:36:27.754Z,40.50
2022-12-11T21:38:55.253Z,41.35
2022-12-11T21:41:24.141Z,40.85
2022-12-11T21:46:41.981Z,40.58
2022-12-11T21:49:10.077Z,39.05
2022-12-11T21:51:47.411Z,41.30
2022-12-11T21:54:18.453Z,37.85
2022-12-11T21:56:46.923Z,37.58
2022-12-11T21:59:14.765Z,39.03
2022-12-11T22:01:45.838Z,38.03
2022-12-11T22:04:14.517Z,41.88
2022-12-11T22:06:43.620Z,40.10
2022-12-11T22:09:12.551Z,40.63
2022-12-11T22:11:42.064Z,36.63
2022-12-11T22:14:15.331Z,35.22
2022-12-11T22:16:43.734Z,40.00
2022-12-11T22:19:11.669Z,41.05
2022-12-11T22:21:39.964Z,39.53
2022-12-11T22:24:07.579Z,40.28
2022-12-11T22:26:35.039Z,38.63
2022-12-11T22:29:02.946Z,43.92
2022-12-11T22:31:30.510Z,43.25
2022-12-11T22:33:57.967Z,44.00
2022-12-11T22:36:26.807Z,43.03
2022-12-11T22:38:54.551Z,44.95
2022-12-11T22:41:22.606Z,44.63
2022-12-11T22:43:51.294Z,40.92
2022-12-11T22:46:21.169Z,40.55
2022-12-11T22:48:48.860Z,38.47
2022-12-11T22:51:17.708Z,39.95
2022-12-11T22:53:45.297Z,36.65
2022-12-11T22:56:13.419Z,33.20
2022-12-11T22:58:41.394Z,31.48
2022-12-11T23:01:15.440Z,30.58
2022-12-11T23:03:43.116Z,32.20
2022-12-11T23:06:13.270Z,32.97
2022-12-11T23:08:43.061Z,33.15
2022-12-11T23:11:25.908Z,31.08
2022-12-11T23:13:54.671Z,33.20
2022-12-11T23:16:24.671Z,34.53
2022-12-11T23:18:53.293Z,31.98
2022-12-11T23:21:21.809Z,34.35
2022-12-11T23:23:49.610Z,33.45
2022-12-11T23:26:18.769Z,37.53
2022-12-11T23:28:47.406Z,33.47
2022-12-11T23:31:16.521Z,33.85
2022-12-11T23:33:44.682Z,36.45
2022-12-11T23:36:12.768Z,34.97
2022-12-11T23:38:40.892Z,34.53
2022-12-11T23:41:11.786Z,32.25
2022-12-11T23:43:41.291Z,34.28
2022-12-11T23:46:16.190Z,31.65
2022-12-11T23:48:44.762Z,31.00
2022-12-11T23:51:15.477Z,34.72
2022-12-11T23:53:43.383Z,31.17
2022-12-11T23:56:15.584Z,30.15
2022-12-11T23:58:45.363Z,28.80
